This is the latest recevied weather packets stored in our database for station/object DG9BJA-13. If no packets are shown the sender has not sent any weather packets the latest 1 day(s).
| Time | Temp. | Humidity | Pressure | Rain* | Wind** | Luminosity | Snow |
|---|---|---|---|---|---|---|---|
| 1777995977 | 10.56° C | 92% | 1009.4 hPa | 0 mm | 3.13 m/s, 45° | 109 W/m² | - |
| 1777995376 | 10.56° C | 92% | 1009.6 hPa | 0 mm | 1.79 m/s, 45° | 79 W/m² | - |
| 1777994776 | 10.56° C | 92% | 1009.6 hPa | 0 mm | 1.79 m/s, 23° | 72 W/m² | - |
| 1777994176 | 10.56° C | 93% | 1009.6 hPa | 0 mm | 1.79 m/s, 23° | 100 W/m² | - |
| 1777993577 | 10.56° C | 93% | 1009.9 hPa | 0 mm | 2.68 m/s, 23° | 88 W/m² | - |
| 1777992977 | 10.56° C | 93% | 1009.9 hPa | 0 mm | 2.68 m/s, 45° | 69 W/m² | - |
| 1777992376 | 10.56° C | 94% | 1009.9 hPa | 0 mm | 1.34 m/s, 23° | 74 W/m² | - |
| 1777991776 | 10.56° C | 94% | 1010 hPa | 0 mm | 1.34 m/s, 23° | 118 W/m² | - |
| 1777991176 | 10° C | 94% | 1010 hPa | 0 mm | 1.34 m/s, 0° | 118 W/m² | - |
| 1777990577 | 10° C | 94% | 1010 hPa | 0 mm | 3.13 m/s, 45° | 91 W/m² | - |
| 1777989976 | 10° C | 94% | 1010.1 hPa | 0 mm | 1.79 m/s, 23° | 88 W/m² | - |
| 1777989376 | 10° C | 94% | 1010.3 hPa | 0 mm | 2.24 m/s, 23° | 137 W/m² | - |
| 1777988776 | 10° C | 94% | 1010.3 hPa | 0 mm | 2.24 m/s, 45° | 163 W/m² | - |
| 1777988176 | 10° C | 94% | 1010.4 hPa | 0 mm | 2.24 m/s, 23° | 128 W/m² | - |
| 1777987576 | 10° C | 94% | 1010.5 hPa | 0.25 mm | 1.79 m/s, 0° | 116 W/m² | - |
| 1777986976 | 9.44° C | 94% | 1010.5 hPa | 0.25 mm | 2.24 m/s, 23° | 100 W/m² | - |
| 1777986376 | 9.44° C | 94% | 1010.5 hPa | 0.25 mm | 1.34 m/s, 23° | 144 W/m² | - |
| 1777985776 | 9.44° C | 93% | 1010.6 hPa | 0.25 mm | 1.34 m/s, 0° | 76 W/m² | - |
| 1777985176 | 9.44° C | 93% | 1010.6 hPa | 0.25 mm | 2.24 m/s, 23° | 102 W/m² | - |
| 1777984586 | 9.44° C | 93% | 1010.6 hPa | 0.51 mm | 2.24 m/s, 45° | 128 W/m² | - |
| 1777983976 | 9.44° C | 93% | 1010.7 hPa | 0.25 mm | 1.34 m/s, 0° | 144 W/m² | - |
| 1777983376 | 8.89° C | 92% | 1010.7 hPa | 0.25 mm | 2.24 m/s, 23° | 128 W/m² | - |
| 1777982776 | 8.89° C | 92% | 1010.9 hPa | 0.25 mm | 2.68 m/s, 23° | 105 W/m² | - |
| 1777982176 | 8.89° C | 91% | 1010.9 hPa | 0.25 mm | 2.24 m/s, 0° | 114 W/m² | - |
| 1777981576 | 8.89° C | 91% | 1010.9 hPa | 0.25 mm | 2.68 m/s, 0° | 116 W/m² | - |
* Rain latest hour (hover to see other rain measurements)
** Current wind speed in m/s (hover to see current wind gust speed)